sensor_id;sensor_type;location;lat;lon;timestamp;P1;durP1;ratioP1;P2;durP2;ratioP2
8716;SDS011;4395;48.554;8.820;2022-11-20T00:00:49;2.75;;;2.45;;
8716;SDS011;4395;48.554;8.820;2022-11-20T00:02:52;2.78;;;2.58;;
8716;SDS011;4395;48.554;8.820;2022-11-20T00:04:55;2.95;;;2.50;;
8716;SDS011;4395;48.554;8.820;2022-11-20T00:06:58;3.55;;;2.67;;
8716;SDS011;4395;48.554;8.820;2022-11-20T00:09:02;3.30;;;2.70;;
8716;SDS011;4395;48.554;8.820;2022-11-20T00:11:06;4.40;;;3.05;;
8716;SDS011;4395;48.554;8.820;2022-11-20T00:13:16;2.88;;;2.65;;
8716;SDS011;4395;48.554;8.820;2022-11-20T00:15:19;3.30;;;2.90;;
8716;SDS011;4395;48.554;8.820;2022-11-20T00:17:21;2.85;;;2.65;;
8716;SDS011;4395;48.554;8.820;2022-11-20T00:19:24;4.05;;;2.90;;
8716;SDS011;4395;48.554;8.820;2022-11-20T00:21:27;4.22;;;3.10;;
8716;SDS011;4395;48.554;8.820;2022-11-20T00:23:31;3.83;;;2.90;;
8716;SDS011;4395;48.554;8.820;2022-11-20T00:25:35;3.95;;;3.03;;
8716;SDS011;4395;48.554;8.820;2022-11-20T00:27:38;3.20;;;2.90;;
8716;SDS011;4395;48.554;8.820;2022-11-20T00:29:41;4.10;;;2.95;;
8716;SDS011;4395;48.554;8.820;2022-11-20T00:31:43;3.35;;;2.92;;
8716;SDS011;4395;48.554;8.820;2022-11-20T00:33:46;4.28;;;3.10;;
8716;SDS011;4395;48.554;8.820;2022-11-20T00:35:49;3.38;;;2.97;;
8716;SDS011;4395;48.554;8.820;2022-11-20T00:37:52;2.75;;;2.50;;
8716;SDS011;4395;48.554;8.820;2022-11-20T00:39:54;3.20;;;2.80;;
8716;SDS011;4395;48.554;8.820;2022-11-20T00:41:58;3.58;;;3.00;;
8716;SDS011;4395;48.554;8.820;2022-11-20T00:44:01;2.50;;;2.30;;
8716;SDS011;4395;48.554;8.820;2022-11-20T00:46:05;2.80;;;2.60;;
8716;SDS011;4395;48.554;8.820;2022-11-20T00:48:08;2.95;;;2.45;;
8716;SDS011;4395;48.554;8.820;2022-11-20T00:50:11;4.65;;;2.85;;
8716;SDS011;4395;48.554;8.820;2022-11-20T00:52:14;3.03;;;2.72;;
8716;SDS011;4395;48.554;8.820;2022-11-20T00:54:17;4.85;;;2.85;;
8716;SDS011;4395;48.554;8.820;2022-11-20T00:56:19;4.03;;;2.75;;
8716;SDS011;4395;48.554;8.820;2022-11-20T00:58:24;3.80;;;3.00;;
8716;SDS011;4395;48.554;8.820;2022-11-20T01:00:27;3.25;;;2.78;;
8716;SDS011;4395;48.554;8.820;2022-11-20T01:02:30;2.90;;;2.70;;
8716;SDS011;4395;48.554;8.820;2022-11-20T01:04:33;3.70;;;3.40;;
8716;SDS011;4395;48.554;8.820;2022-11-20T01:06:36;7.80;;;5.30;;
8716;SDS011;4395;48.554;8.820;2022-11-20T01:08:40;14.65;;;8.45;;
8716;SDS011;4395;48.554;8.820;2022-11-20T01:10:44;10.05;;;6.13;;
8716;SDS011;4395;48.554;8.820;2022-11-20T01:12:47;14.57;;;10.23;;
8716;SDS011;4395;48.554;8.820;2022-11-20T01:15:11;15.90;;;11.43;;
8716;SDS011;4395;48.554;8.820;2022-11-20T01:17:14;11.95;;;9.30;;
8716;SDS011;4395;48.554;8.820;2022-11-20T01:19:17;8.43;;;6.82;;
8716;SDS011;4395;48.554;8.820;2022-11-20T01:21:23;5.13;;;4.60;;
8716;SDS011;4395;48.554;8.820;2022-11-20T01:23:29;4.65;;;4.25;;
8716;SDS011;4395;48.554;8.820;2022-11-20T01:25:34;5.70;;;5.00;;
8716;SDS011;4395;48.554;8.820;2022-11-20T01:27:36;7.22;;;6.22;;
8716;SDS011;4395;48.554;8.820;2022-11-20T01:29:39;5.95;;;5.35;;
8716;SDS011;4395;48.554;8.820;2022-11-20T01:31:43;4.40;;;4.00;;
8716;SDS011;4395;48.554;8.820;2022-11-20T01:33:47;4.38;;;3.92;;
8716;SDS011;4395;48.554;8.820;2022-11-20T01:35:52;3.58;;;3.20;;
8716;SDS011;4395;48.554;8.820;2022-11-20T01:37:55;3.33;;;3.03;;
8716;SDS011;4395;48.554;8.820;2022-11-20T01:39:58;4.65;;;4.20;;
8716;SDS011;4395;48.554;8.820;2022-11-20T01:42:00;4.55;;;4.03;;
8716;SDS011;4395;48.554;8.820;2022-11-20T01:44:22;4.30;;;3.90;;
8716;SDS011;4395;48.554;8.820;2022-11-20T01:46:47;3.80;;;3.47;;
8716;SDS011;4395;48.554;8.820;2022-11-20T01:48:57;3.60;;;3.30;;
8716;SDS011;4395;48.554;8.820;2022-11-20T01:51:02;3.50;;;3.20;;
8716;SDS011;4395;48.554;8.820;2022-11-20T01:53:09;3.30;;;3.00;;
8716;SDS011;4395;48.554;8.820;2022-11-20T01:55:17;3.50;;;3.20;;
8716;SDS011;4395;48.554;8.820;2022-11-20T01:57:24;4.28;;;3.42;;
8716;SDS011;4395;48.554;8.820;2022-11-20T01:59:30;3.60;;;3.30;;
8716;SDS011;4395;48.554;8.820;2022-11-20T02:01:33;3.40;;;3.05;;
8716;SDS011;4395;48.554;8.820;2022-11-20T02:03:37;4.18;;;3.78;;
8716;SDS011;4395;48.554;8.820;2022-11-20T02:05:41;3.63;;;3.33;;
8716;SDS011;4395;48.554;8.820;2022-11-20T02:07:48;4.15;;;3.75;;
8716;SDS011;4395;48.554;8.820;2022-11-20T02:09:52;4.28;;;3.55;;
8716;SDS011;4395;48.554;8.820;2022-11-20T02:11:59;4.10;;;3.58;;
8716;SDS011;4395;48.554;8.820;2022-11-20T02:14:03;6.00;;;4.22;;
8716;SDS011;4395;48.554;8.820;2022-11-20T02:16:05;4.90;;;3.97;;
8716;SDS011;4395;48.554;8.820;2022-11-20T02:18:13;4.50;;;4.10;;
8716;SDS011;4395;48.554;8.820;2022-11-20T02:20:19;4.70;;;4.10;;
8716;SDS011;4395;48.554;8.820;2022-11-20T02:22:22;5.07;;;4.60;;
8716;SDS011;4395;48.554;8.820;2022-11-20T02:24:34;4.60;;;4.03;;
8716;SDS011;4395;48.554;8.820;2022-11-20T02:26:41;4.22;;;3.83;;
8716;SDS011;4395;48.554;8.820;2022-11-20T02:28:48;5.43;;;4.35;;
8716;SDS011;4395;48.554;8.820;2022-11-20T02:30:52;4.93;;;4.30;;
8716;SDS011;4395;48.554;8.820;2022-11-20T02:32:55;5.57;;;4.53;;
8716;SDS011;4395;48.554;8.820;2022-11-20T02:34:57;4.55;;;4.15;;
8716;SDS011;4395;48.554;8.820;2022-11-20T02:37:00;6.55;;;4.53;;
8716;SDS011;4395;48.554;8.820;2022-11-20T02:39:03;5.07;;;4.28;;
8716;SDS011;4395;48.554;8.820;2022-11-20T02:41:08;4.75;;;3.95;;
8716;SDS011;4395;48.554;8.820;2022-11-20T02:43:11;5.32;;;4.78;;
8716;SDS011;4395;48.554;8.820;2022-11-20T02:45:14;6.18;;;4.47;;
8716;SDS011;4395;48.554;8.820;2022-11-20T02:47:16;5.57;;;4.80;;
8716;SDS011;4395;48.554;8.820;2022-11-20T02:49:19;6.80;;;4.75;;
8716;SDS011;4395;48.554;8.820;2022-11-20T02:51:22;5.32;;;4.57;;
8716;SDS011;4395;48.554;8.820;2022-11-20T02:53:25;5.65;;;5.13;;
8716;SDS011;4395;48.554;8.820;2022-11-20T02:55:28;5.93;;;5.32;;
8716;SDS011;4395;48.554;8.820;2022-11-20T02:57:32;4.75;;;4.22;;
8716;SDS011;4395;48.554;8.820;2022-11-20T02:59:35;8.95;;;4.75;;
8716;SDS011;4395;48.554;8.820;2022-11-20T03:01:37;9.43;;;4.95;;
8716;SDS011;4395;48.554;8.820;2022-11-20T03:03:41;6.47;;;4.38;;
8716;SDS011;4395;48.554;8.820;2022-11-20T03:05:43;6.18;;;4.50;;
8716;SDS011;4395;48.554;8.820;2022-11-20T03:07:46;5.07;;;4.55;;
8716;SDS011;4395;48.554;8.820;2022-11-20T03:09:49;5.03;;;4.53;;
8716;SDS011;4395;48.554;8.820;2022-11-20T03:11:51;5.07;;;4.40;;
8716;SDS011;4395;48.554;8.820;2022-11-20T03:13:55;5.22;;;4.72;;
8716;SDS011;4395;48.554;8.820;2022-11-20T03:15:58;5.47;;;4.80;;
8716;SDS011;4395;48.554;8.820;2022-11-20T03:18:07;5.45;;;4.40;;
8716;SDS011;4395;48.554;8.820;2022-11-20T03:20:10;5.13;;;4.68;;
8716;SDS011;4395;48.554;8.820;2022-11-20T03:22:13;5.65;;;4.97;;
8716;SDS011;4395;48.554;8.820;2022-11-20T03:24:16;6.55;;;4.88;;
8716;SDS011;4395;48.554;8.820;2022-11-20T03:26:19;5.57;;;5.07;;
8716;SDS011;4395;48.554;8.820;2022-11-20T03:28:24;6.13;;;4.65;;
8716;SDS011;4395;48.554;8.820;2022-11-20T03:30:28;6.03;;;4.55;;
8716;SDS011;4395;48.554;8.820;2022-11-20T03:32:31;5.63;;;4.38;;
8716;SDS011;4395;48.554;8.820;2022-11-20T03:34:34;5.10;;;4.60;;
8716;SDS011;4395;48.554;8.820;2022-11-20T03:36:37;4.90;;;4.35;;
8716;SDS011;4395;48.554;8.820;2022-11-20T03:38:40;5.88;;;4.65;;
8716;SDS011;4395;48.554;8.820;2022-11-20T03:40:43;6.45;;;4.93;;
8716;SDS011;4395;48.554;8.820;2022-11-20T03:42:46;6.00;;;4.60;;
8716;SDS011;4395;48.554;8.820;2022-11-20T03:44:49;16.33;;;10.30;;
8716;SDS011;4395;48.554;8.820;2022-11-20T03:46:53;20.42;;;13.77;;
8716;SDS011;4395;48.554;8.820;2022-11-20T03:48:56;18.88;;;13.50;;
8716;SDS011;4395;48.554;8.820;2022-11-20T03:51:09;12.90;;;8.88;;
8716;SDS011;4395;48.554;8.820;2022-11-20T03:53:13;9.20;;;6.90;;
8716;SDS011;4395;48.554;8.820;2022-11-20T03:55:16;8.75;;;6.70;;
8716;SDS011;4395;48.554;8.820;2022-11-20T03:57:19;6.40;;;5.22;;
8716;SDS011;4395;48.554;8.820;2022-11-20T03:59:21;5.97;;;5.20;;
8716;SDS011;4395;48.554;8.820;2022-11-20T04:01:25;6.07;;;5.25;;
8716;SDS011;4395;48.554;8.820;2022-11-20T04:03:30;4.85;;;4.43;;
8716;SDS011;4395;48.554;8.820;2022-11-20T04:05:33;4.80;;;4.38;;
8716;SDS011;4395;48.554;8.820;2022-11-20T04:07:36;4.78;;;4.30;;
8716;SDS011;4395;48.554;8.820;2022-11-20T04:09:38;5.00;;;3.97;;
8716;SDS011;4395;48.554;8.820;2022-11-20T04:11:41;4.57;;;4.13;;
8716;SDS011;4395;48.554;8.820;2022-11-20T04:13:45;4.85;;;4.20;;
8716;SDS011;4395;48.554;8.820;2022-11-20T04:15:49;4.78;;;4.28;;
8716;SDS011;4395;48.554;8.820;2022-11-20T04:17:53;4.60;;;4.20;;
8716;SDS011;4395;48.554;8.820;2022-11-20T04:19:57;5.13;;;3.72;;
8716;SDS011;4395;48.554;8.820;2022-11-20T04:22:00;5.53;;;4.22;;
8716;SDS011;4395;48.554;8.820;2022-11-20T04:24:03;4.47;;;3.97;;
8716;SDS011;4395;48.554;8.820;2022-11-20T04:26:07;5.18;;;4.30;;
8716;SDS011;4395;48.554;8.820;2022-11-20T04:28:12;6.65;;;3.95;;
8716;SDS011;4395;48.554;8.820;2022-11-20T04:30:14;4.50;;;3.88;;
8716;SDS011;4395;48.554;8.820;2022-11-20T04:32:17;4.78;;;3.92;;
8716;SDS011;4395;48.554;8.820;2022-11-20T04:34:20;4.25;;;3.83;;
8716;SDS011;4395;48.554;8.820;2022-11-20T04:36:25;4.32;;;3.75;;
8716;SDS011;4395;48.554;8.820;2022-11-20T04:38:29;4.20;;;3.78;;
8716;SDS011;4395;48.554;8.820;2022-11-20T04:40:32;4.10;;;3.70;;
8716;SDS011;4395;48.554;8.820;2022-11-20T04:42:34;5.05;;;3.92;;
8716;SDS011;4395;48.554;8.820;2022-11-20T04:44:37;4.20;;;3.80;;
8716;SDS011;4395;48.554;8.820;2022-11-20T04:46:41;4.38;;;3.90;;
8716;SDS011;4395;48.554;8.820;2022-11-20T04:48:44;4.10;;;3.70;;
8716;SDS011;4395;48.554;8.820;2022-11-20T04:50:47;5.88;;;3.90;;
8716;SDS011;4395;48.554;8.820;2022-11-20T04:52:51;7.50;;;3.97;;
8716;SDS011;4395;48.554;8.820;2022-11-20T04:54:54;5.15;;;4.22;;
8716;SDS011;4395;48.554;8.820;2022-11-20T04:56:57;4.00;;;3.60;;
8716;SDS011;4395;48.554;8.820;2022-11-20T04:59:00;4.38;;;3.97;;
8716;SDS011;4395;48.554;8.820;2022-11-20T05:01:10;4.63;;;3.80;;
8716;SDS011;4395;48.554;8.820;2022-11-20T05:03:14;4.85;;;4.30;;
8716;SDS011;4395;48.554;8.820;2022-11-20T05:05:17;4.32;;;3.92;;
8716;SDS011;4395;48.554;8.820;2022-11-20T05:07:20;3.67;;;3.38;;
8716;SDS011;4395;48.554;8.820;2022-11-20T05:09:24;4.35;;;3.60;;
8716;SDS011;4395;48.554;8.820;2022-11-20T05:11:27;3.75;;;3.38;;
8716;SDS011;4395;48.554;8.820;2022-11-20T05:13:30;4.00;;;3.53;;
8716;SDS011;4395;48.554;8.820;2022-11-20T05:15:34;5.82;;;3.50;;
8716;SDS011;4395;48.554;8.820;2022-11-20T05:17:37;4.10;;;3.70;;
8716;SDS011;4395;48.554;8.820;2022-11-20T05:19:40;4.18;;;3.50;;
8716;SDS011;4395;48.554;8.820;2022-11-20T05:21:42;5.10;;;4.53;;
8716;SDS011;4395;48.554;8.820;2022-11-20T05:23:45;4.38;;;3.90;;
8716;SDS011;4395;48.554;8.820;2022-11-20T05:25:52;5.72;;;4.30;;
8716;SDS011;4395;48.554;8.820;2022-11-20T05:27:59;4.10;;;3.70;;
8716;SDS011;4395;48.554;8.820;2022-11-20T05:30:02;3.95;;;3.55;;
8716;SDS011;4395;48.554;8.820;2022-11-20T05:32:05;5.05;;;4.00;;
8716;SDS011;4395;48.554;8.820;2022-11-20T05:34:10;5.47;;;4.00;;
8716;SDS011;4395;48.554;8.820;2022-11-20T05:36:13;5.53;;;4.07;;
8716;SDS011;4395;48.554;8.820;2022-11-20T05:38:16;4.22;;;3.83;;
8716;SDS011;4395;48.554;8.820;2022-11-20T05:40:19;5.05;;;4.10;;
8716;SDS011;4395;48.554;8.820;2022-11-20T05:42:23;4.88;;;3.60;;
8716;SDS011;4395;48.554;8.820;2022-11-20T05:44:35;3.90;;;3.20;;
8716;SDS011;4395;48.554;8.820;2022-11-20T05:46:38;3.17;;;2.70;;
8716;SDS011;4395;48.554;8.820;2022-11-20T05:48:41;3.50;;;3.20;;
8716;SDS011;4395;48.554;8.820;2022-11-20T05:50:45;3.33;;;3.03;;
8716;SDS011;4395;48.554;8.820;2022-11-20T05:52:48;3.08;;;2.88;;
8716;SDS011;4395;48.554;8.820;2022-11-20T05:54:51;3.30;;;3.00;;
8716;SDS011;4395;48.554;8.820;2022-11-20T05:56:54;3.03;;;2.70;;
8716;SDS011;4395;48.554;8.820;2022-11-20T05:58:58;3.25;;;2.95;;
8716;SDS011;4395;48.554;8.820;2022-11-20T06:01:05;3.25;;;2.42;;
8716;SDS011;4395;48.554;8.820;2022-11-20T06:03:09;4.18;;;2.90;;
8716;SDS011;4395;48.554;8.820;2022-11-20T06:05:12;3.65;;;3.35;;
8716;SDS011;4395;48.554;8.820;2022-11-20T06:07:15;3.30;;;3.00;;
8716;SDS011;4395;48.554;8.820;2022-11-20T06:09:18;3.13;;;2.90;;
8716;SDS011;4395;48.554;8.820;2022-11-20T06:11:21;5.07;;;3.50;;
8716;SDS011;4395;48.554;8.820;2022-11-20T06:13:24;6.72;;;4.47;;
8716;SDS011;4395;48.554;8.820;2022-11-20T06:15:28;11.38;;;6.45;;
8716;SDS011;4395;48.554;8.820;2022-11-20T06:17:31;4.95;;;4.38;;
8716;SDS011;4395;48.554;8.820;2022-11-20T06:19:34;4.30;;;3.90;;
8716;SDS011;4395;48.554;8.820;2022-11-20T06:21:37;4.63;;;4.15;;
8716;SDS011;4395;48.554;8.820;2022-11-20T06:23:40;4.75;;;3.47;;
8716;SDS011;4395;48.554;8.820;2022-11-20T06:25:43;3.72;;;3.03;;
8716;SDS011;4395;48.554;8.820;2022-11-20T06:27:46;3.15;;;2.95;;
8716;SDS011;4395;48.554;8.820;2022-11-20T06:29:49;2.97;;;2.70;;
8716;SDS011;4395;48.554;8.820;2022-11-20T06:31:53;3.15;;;2.72;;
8716;SDS011;4395;48.554;8.820;2022-11-20T06:33:55;2.72;;;2.53;;
8716;SDS011;4395;48.554;8.820;2022-11-20T06:35:58;4.18;;;2.90;;
8716;SDS011;4395;48.554;8.820;2022-11-20T06:38:10;3.00;;;2.75;;
8716;SDS011;4395;48.554;8.820;2022-11-20T06:40:13;2.72;;;2.53;;
8716;SDS011;4395;48.554;8.820;2022-11-20T06:42:16;5.05;;;2.83;;
8716;SDS011;4395;48.554;8.820;2022-11-20T06:44:19;3.35;;;3.05;;
8716;SDS011;4395;48.554;8.820;2022-11-20T06:46:22;2.88;;;2.53;;
8716;SDS011;4395;48.554;8.820;2022-11-20T06:48:26;2.97;;;2.70;;
8716;SDS011;4395;48.554;8.820;2022-11-20T06:50:30;2.90;;;2.70;;
8716;SDS011;4395;48.554;8.820;2022-11-20T06:52:33;3.80;;;3.10;;
8716;SDS011;4395;48.554;8.820;2022-11-20T06:54:42;2.30;;;2.10;;
8716;SDS011;4395;48.554;8.820;2022-11-20T06:56:46;2.40;;;2.20;;
8716;SDS011;4395;48.554;8.820;2022-11-20T06:58:48;3.05;;;2.53;;
8716;SDS011;4395;48.554;8.820;2022-11-20T07:00:51;3.45;;;3.08;;
8716;SDS011;4395;48.554;8.820;2022-11-20T07:02:54;2.80;;;2.60;;
8716;SDS011;4395;48.554;8.820;2022-11-20T07:04:58;4.03;;;2.70;;
8716;SDS011;4395;48.554;8.820;2022-11-20T07:07:01;2.85;;;2.30;;
8716;SDS011;4395;48.554;8.820;2022-11-20T07:09:04;3.10;;;2.47;;
8716;SDS011;4395;48.554;8.820;2022-11-20T07:11:13;2.72;;;2.53;;
8716;SDS011;4395;48.554;8.820;2022-11-20T07:13:15;2.55;;;2.35;;
8716;SDS011;4395;48.554;8.820;2022-11-20T07:15:19;4.10;;;3.50;;
8716;SDS011;4395;48.554;8.820;2022-11-20T07:17:23;3.03;;;2.72;;
8716;SDS011;4395;48.554;8.820;2022-11-20T07:19:25;3.25;;;2.60;;
8716;SDS011;4395;48.554;8.820;2022-11-20T07:21:30;2.38;;;2.17;;
8716;SDS011;4395;48.554;8.820;2022-11-20T07:23:32;3.30;;;2.20;;
8716;SDS011;4395;48.554;8.820;2022-11-20T07:25:35;2.40;;;2.20;;
8716;SDS011;4395;48.554;8.820;2022-11-20T07:27:38;2.70;;;2.50;;
8716;SDS011;4395;48.554;8.820;2022-11-20T07:29:41;4.90;;;4.30;;
8716;SDS011;4395;48.554;8.820;2022-11-20T07:31:44;3.38;;;2.95;;
8716;SDS011;4395;48.554;8.820;2022-11-20T07:33:47;4.20;;;3.78;;
8716;SDS011;4395;48.554;8.820;2022-11-20T07:35:50;2.90;;;2.60;;
8716;SDS011;4395;48.554;8.820;2022-11-20T07:37:54;2.65;;;2.45;;
8716;SDS011;4395;48.554;8.820;2022-11-20T07:39:56;4.07;;;3.63;;
8716;SDS011;4395;48.554;8.820;2022-11-20T07:41:59;4.03;;;3.42;;
8716;SDS011;4395;48.554;8.820;2022-11-20T07:44:02;4.50;;;4.00;;
8716;SDS011;4395;48.554;8.820;2022-11-20T07:46:05;4.30;;;3.90;;
8716;SDS011;4395;48.554;8.820;2022-11-20T07:48:08;3.65;;;3.35;;
8716;SDS011;4395;48.554;8.820;2022-11-20T07:50:11;5.65;;;4.93;;
8716;SDS011;4395;48.554;8.820;2022-11-20T07:52:15;4.47;;;3.70;;
8716;SDS011;4395;48.554;8.820;2022-11-20T07:54:19;2.72;;;2.53;;
8716;SDS011;4395;48.554;8.820;2022-11-20T07:56:22;3.50;;;3.20;;
8716;SDS011;4395;48.554;8.820;2022-11-20T07:58:25;3.40;;;3.10;;
8716;SDS011;4395;48.554;8.820;2022-11-20T08:00:28;2.95;;;2.63;;
8716;SDS011;4395;48.554;8.820;2022-11-20T08:02:31;3.28;;;2.97;;
8716;SDS011;4395;48.554;8.820;2022-11-20T08:04:35;2.63;;;2.42;;
8716;SDS011;4395;48.554;8.820;2022-11-20T08:06:37;2.30;;;2.10;;
8716;SDS011;4395;48.554;8.820;2022-11-20T08:08:40;2.33;;;2.20;;
8716;SDS011;4395;48.554;8.820;2022-11-20T08:10:44;2.35;;;2.15;;
8716;SDS011;4395;48.554;8.820;2022-11-20T08:12:48;2.30;;;1.83;;
8716;SDS011;4395;48.554;8.820;2022-11-20T08:15:09;2.22;;;2.10;;
8716;SDS011;4395;48.554;8.820;2022-11-20T08:17:13;2.00;;;1.90;;
8716;SDS011;4395;48.554;8.820;2022-11-20T08:19:17;3.10;;;2.40;;
8716;SDS011;4395;48.554;8.820;2022-11-20T08:21:21;1.77;;;1.40;;
8716;SDS011;4395;48.554;8.820;2022-11-20T08:23:23;1.50;;;1.40;;
8716;SDS011;4395;48.554;8.820;2022-11-20T08:25:27;1.92;;;1.77;;
8716;SDS011;4395;48.554;8.820;2022-11-20T08:27:32;2.03;;;1.80;;
8716;SDS011;4395;48.554;8.820;2022-11-20T08:29:39;2.08;;;1.15;;
8716;SDS011;4395;48.554;8.820;2022-11-20T08:31:41;1.77;;;1.67;;
8716;SDS011;4395;48.554;8.820;2022-11-20T08:33:44;1.55;;;1.25;;
8716;SDS011;4395;48.554;8.820;2022-11-20T08:35:47;1.13;;;1.05;;
8716;SDS011;4395;48.554;8.820;2022-11-20T08:37:52;1.88;;;1.10;;
8716;SDS011;4395;48.554;8.820;2022-11-20T08:39:55;2.40;;;2.17;;
8716;SDS011;4395;48.554;8.820;2022-11-20T08:41:58;0.93;;;0.93;;
8716;SDS011;4395;48.554;8.820;2022-11-20T08:44:03;1.10;;;1.10;;
8716;SDS011;4395;48.554;8.820;2022-11-20T08:46:07;2.03;;;1.27;;
8716;SDS011;4395;48.554;8.820;2022-11-20T08:48:10;1.00;;;1.00;;
8716;SDS011;4395;48.554;8.820;2022-11-20T08:50:14;1.00;;;1.00;;
8716;SDS011;4395;48.554;8.820;2022-11-20T08:52:18;1.40;;;1.30;;
8716;SDS011;4395;48.554;8.820;2022-11-20T08:54:21;1.23;;;1.10;;
8716;SDS011;4395;48.554;8.820;2022-11-20T08:56:23;1.13;;;1.08;;
8716;SDS011;4395;48.554;8.820;2022-11-20T08:58:26;2.55;;;2.35;;
8716;SDS011;4395;48.554;8.820;2022-11-20T09:00:32;2.42;;;2.17;;
8716;SDS011;4395;48.554;8.820;2022-11-20T09:02:36;4.07;;;2.80;;
8716;SDS011;4395;48.554;8.820;2022-11-20T09:04:39;1.52;;;1.30;;
8716;SDS011;4395;48.554;8.820;2022-11-20T09:06:42;2.05;;;1.80;;
8716;SDS011;4395;48.554;8.820;2022-11-20T09:08:44;1.60;;;1.50;;
8716;SDS011;4395;48.554;8.820;2022-11-20T09:10:50;2.50;;;1.63;;
8716;SDS011;4395;48.554;8.820;2022-11-20T09:12:54;1.90;;;1.80;;
8716;SDS011;4395;48.554;8.820;2022-11-20T09:14:57;2.10;;;1.20;;
8716;SDS011;4395;48.554;8.820;2022-11-20T09:17:01;1.55;;;1.30;;
8716;SDS011;4395;48.554;8.820;2022-11-20T09:19:04;1.70;;;1.60;;
8716;SDS011;4395;48.554;8.820;2022-11-20T09:21:27;2.35;;;2.15;;
8716;SDS011;4395;48.554;8.820;2022-11-20T09:23:31;1.40;;;1.30;;
8716;SDS011;4395;48.554;8.820;2022-11-20T09:25:35;1.30;;;1.20;;
8716;SDS011;4395;48.554;8.820;2022-11-20T09:27:38;1.42;;;1.00;;
8716;SDS011;4395;48.554;8.820;2022-11-20T09:29:42;1.45;;;1.35;;
8716;SDS011;4395;48.554;8.820;2022-11-20T09:31:45;1.20;;;1.10;;
8716;SDS011;4395;48.554;8.820;2022-11-20T09:33:49;2.15;;;1.15;;
8716;SDS011;4395;48.554;8.820;2022-11-20T09:35:52;1.20;;;1.10;;
8716;SDS011;4395;48.554;8.820;2022-11-20T09:37:55;0.80;;;0.80;;
8716;SDS011;4395;48.554;8.820;2022-11-20T09:39:58;1.30;;;1.20;;
8716;SDS011;4395;48.554;8.820;2022-11-20T09:42:04;1.15;;;1.05;;
8716;SDS011;4395;48.554;8.820;2022-11-20T09:44:19;1.85;;;1.50;;
8716;SDS011;4395;48.554;8.820;2022-11-20T09:46:37;0.75;;;0.75;;
8716;SDS011;4395;48.554;8.820;2022-11-20T09:48:54;1.00;;;0.90;;
8716;SDS011;4395;48.554;8.820;2022-11-20T09:51:11;1.08;;;0.98;;
8716;SDS011;4395;48.554;8.820;2022-11-20T09:53:21;1.33;;;1.20;;
8716;SDS011;4395;48.554;8.820;2022-11-20T09:55:31;0.80;;;0.80;;
8716;SDS011;4395;48.554;8.820;2022-11-20T09:57:36;1.23;;;1.13;;
8716;SDS011;4395;48.554;8.820;2022-11-20T09:59:43;1.70;;;1.40;;
8716;SDS011;4395;48.554;8.820;2022-11-20T10:01:48;1.27;;;1.15;;
8716;SDS011;4395;48.554;8.820;2022-11-20T10:03:54;1.30;;;1.20;;
8716;SDS011;4395;48.554;8.820;2022-11-20T10:06:01;1.63;;;1.52;;
8716;SDS011;4395;48.554;8.820;2022-11-20T10:08:08;2.00;;;1.20;;
8716;SDS011;4395;48.554;8.820;2022-11-20T10:10:20;2.05;;;1.30;;
8716;SDS011;4395;48.554;8.820;2022-11-20T10:12:33;1.27;;;0.93;;
8716;SDS011;4395;48.554;8.820;2022-11-20T10:14:50;5.25;;;0.90;;
8716;SDS011;4395;48.554;8.820;2022-11-20T10:17:12;1.00;;;0.90;;
8716;SDS011;4395;48.554;8.820;2022-11-20T10:19:25;0.90;;;0.90;;
8716;SDS011;4395;48.554;8.820;2022-11-20T10:21:39;0.70;;;0.70;;
8716;SDS011;4395;48.554;8.820;2022-11-20T10:24:06;1.10;;;1.10;;
8716;SDS011;4395;48.554;8.820;2022-11-20T10:26:28;2.45;;;1.75;;
8716;SDS011;4395;48.554;8.820;2022-11-20T10:28:41;0.90;;;0.85;;
8716;SDS011;4395;48.554;8.820;2022-11-20T10:31:02;1.48;;;0.82;;
8716;SDS011;4395;48.554;8.820;2022-11-20T10:33:11;2.13;;;1.73;;
8716;SDS011;4395;48.554;8.820;2022-11-20T10:35:21;1.42;;;1.10;;
8716;SDS011;4395;48.554;8.820;2022-11-20T10:37:27;1.00;;;0.95;;
8716;SDS011;4395;48.554;8.820;2022-11-20T10:39:33;1.20;;;1.10;;
8716;SDS011;4395;48.554;8.820;2022-11-20T10:41:43;1.35;;;1.25;;
8716;SDS011;4395;48.554;8.820;2022-11-20T10:43:51;1.52;;;1.05;;
8716;SDS011;4395;48.554;8.820;2022-11-20T10:46:00;1.00;;;1.00;;
8716;SDS011;4395;48.554;8.820;2022-11-20T10:48:10;1.60;;;1.50;;
8716;SDS011;4395;48.554;8.820;2022-11-20T10:50:19;3.05;;;2.20;;
8716;SDS011;4395;48.554;8.820;2022-11-20T10:52:26;11.40;;;4.43;;
8716;SDS011;4395;48.554;8.820;2022-11-20T10:54:39;15.63;;;7.35;;
8716;SDS011;4395;48.554;8.820;2022-11-20T10:56:50;26.60;;;9.07;;
8716;SDS011;4395;48.554;8.820;2022-11-20T10:59:00;20.75;;;7.88;;
8716;SDS011;4395;48.554;8.820;2022-11-20T11:01:14;10.18;;;4.22;;
8716;SDS011;4395;48.554;8.820;2022-11-20T11:03:20;21.65;;;8.85;;
8716;SDS011;4395;48.554;8.820;2022-11-20T11:05:34;4.82;;;2.67;;
8716;SDS011;4395;48.554;8.820;2022-11-20T11:07:41;1.35;;;1.25;;
8716;SDS011;4395;48.554;8.820;2022-11-20T11:09:47;2.95;;;2.67;;
8716;SDS011;4395;48.554;8.820;2022-11-20T11:11:51;3.25;;;2.95;;
8716;SDS011;4395;48.554;8.820;2022-11-20T11:14:03;5.57;;;3.00;;
8716;SDS011;4395;48.554;8.820;2022-11-20T11:16:16;2.15;;;1.95;;
8716;SDS011;4395;48.554;8.820;2022-11-20T11:18:24;6.65;;;1.77;;
8716;SDS011;4395;48.554;8.820;2022-11-20T11:20:28;2.58;;;2.38;;
8716;SDS011;4395;48.554;8.820;2022-11-20T11:22:33;2.80;;;1.35;;
8716;SDS011;4395;48.554;8.820;2022-11-20T11:24:36;3.33;;;1.30;;
8716;SDS011;4395;48.554;8.820;2022-11-20T11:26:50;2.78;;;1.50;;
8716;SDS011;4395;48.554;8.820;2022-11-20T11:28:54;0.88;;;0.88;;
8716;SDS011;4395;48.554;8.820;2022-11-20T11:30:58;1.67;;;1.00;;
8716;SDS011;4395;48.554;8.820;2022-11-20T11:33:02;1.83;;;1.02;;
8716;SDS011;4395;48.554;8.820;2022-11-20T11:35:17;1.42;;;0.93;;
8716;SDS011;4395;48.554;8.820;2022-11-20T11:37:23;0.93;;;0.50;;
8716;SDS011;4395;48.554;8.820;2022-11-20T11:39:37;1.10;;;0.63;;
8716;SDS011;4395;48.554;8.820;2022-11-20T11:41:43;1.42;;;1.00;;
8716;SDS011;4395;48.554;8.820;2022-11-20T11:43:49;0.88;;;0.70;;
8716;SDS011;4395;48.554;8.820;2022-11-20T11:46:20;1.80;;;0.55;;
8716;SDS011;4395;48.554;8.820;2022-11-20T11:48:27;1.13;;;0.70;;
8716;SDS011;4395;48.554;8.820;2022-11-20T11:50:30;1.20;;;0.63;;
8716;SDS011;4395;48.554;8.820;2022-11-20T11:52:33;3.30;;;0.70;;
8716;SDS011;4395;48.554;8.820;2022-11-20T11:54:44;1.02;;;0.80;;
8716;SDS011;4395;48.554;8.820;2022-11-20T11:56:51;1.55;;;0.98;;
8716;SDS011;4395;48.554;8.820;2022-11-20T11:58:55;1.40;;;1.25;;
8716;SDS011;4395;48.554;8.820;2022-11-20T12:01:03;2.83;;;0.98;;
8716;SDS011;4395;48.554;8.820;2022-11-20T12:03:12;3.25;;;2.20;;
8716;SDS011;4395;48.554;8.820;2022-11-20T12:05:18;2.08;;;1.02;;
8716;SDS011;4395;48.554;8.820;2022-11-20T12:07:27;0.95;;;0.75;;
8716;SDS011;4395;48.554;8.820;2022-11-20T12:09:52;2.15;;;1.30;;
8716;SDS011;4395;48.554;8.820;2022-11-20T12:11:58;2.75;;;1.10;;
8716;SDS011;4395;48.554;8.820;2022-11-20T12:14:09;4.53;;;1.23;;
8716;SDS011;4395;48.554;8.820;2022-11-20T12:16:17;1.40;;;1.00;;
8716;SDS011;4395;48.554;8.820;2022-11-20T12:18:22;2.13;;;1.40;;
8716;SDS011;4395;48.554;8.820;2022-11-20T12:20:26;2.90;;;1.00;;
8716;SDS011;4395;48.554;8.820;2022-11-20T12:22:38;0.73;;;0.70;;
8716;SDS011;4395;48.554;8.820;2022-11-20T12:24:54;2.55;;;1.17;;
8716;SDS011;4395;48.554;8.820;2022-11-20T12:27:08;1.60;;;0.70;;
8716;SDS011;4395;48.554;8.820;2022-11-20T12:29:40;0.75;;;0.70;;
8716;SDS011;4395;48.554;8.820;2022-11-20T12:32:03;1.63;;;0.88;;
8716;SDS011;4395;48.554;8.820;2022-11-20T12:34:30;1.10;;;1.00;;
8716;SDS011;4395;48.554;8.820;2022-11-20T12:36:48;4.25;;;3.20;;
8716;SDS011;4395;48.554;8.820;2022-11-20T12:39:05;3.63;;;1.70;;
8716;SDS011;4395;48.554;8.820;2022-11-20T12:41:19;0.68;;;0.50;;
8716;SDS011;4395;48.554;8.820;2022-11-20T12:43:55;2.42;;;0.82;;
8716;SDS011;4395;48.554;8.820;2022-11-20T12:46:26;4.63;;;0.90;;
8716;SDS011;4395;48.554;8.820;2022-11-20T12:48:43;2.22;;;1.02;;
8716;SDS011;4395;48.554;8.820;2022-11-20T12:51:07;0.98;;;0.90;;
8716;SDS011;4395;48.554;8.820;2022-11-20T12:53:23;1.35;;;0.90;;
8716;SDS011;4395;48.554;8.820;2022-11-20T12:55:42;1.35;;;0.80;;
8716;SDS011;4395;48.554;8.820;2022-11-20T12:57:56;1.17;;;0.90;;
8716;SDS011;4395;48.554;8.820;2022-11-20T13:00:03;1.02;;;0.88;;
8716;SDS011;4395;48.554;8.820;2022-11-20T13:02:15;1.45;;;0.60;;